sensor_id;sensor_type;location;lat;lon;timestamp;temperature;humidity
17697;DHT22;8967;47.984;7.842;2022-07-10T00:00:15;20.10;79.20
17697;DHT22;8967;47.984;7.842;2022-07-10T00:02:45;20.10;78.80
17697;DHT22;8967;47.984;7.842;2022-07-10T00:05:12;20.10;78.70
17697;DHT22;8967;47.984;7.842;2022-07-10T00:07:39;20.00;78.80
17697;DHT22;8967;47.984;7.842;2022-07-10T00:10:08;20.00;79.00
17697;DHT22;8967;47.984;7.842;2022-07-10T00:12:35;20.10;79.20
17697;DHT22;8967;47.984;7.842;2022-07-10T00:15:03;20.10;79.50
17697;DHT22;8967;47.984;7.842;2022-07-10T00:17:30;20.10;79.60
17697;DHT22;8967;47.984;7.842;2022-07-10T00:19:59;20.10;80.00
17697;DHT22;8967;47.984;7.842;2022-07-10T00:22:26;20.00;80.00
17697;DHT22;8967;47.984;7.842;2022-07-10T00:24:52;20.00;79.90
17697;DHT22;8967;47.984;7.842;2022-07-10T00:27:19;19.90;79.60
17697;DHT22;8967;47.984;7.842;2022-07-10T00:29:46;19.90;79.50
17697;DHT22;8967;47.984;7.842;2022-07-10T00:32:13;19.90;79.70
17697;DHT22;8967;47.984;7.842;2022-07-10T00:34:40;19.80;79.80
17697;DHT22;8967;47.984;7.842;2022-07-10T00:37:09;19.80;79.40
17697;DHT22;8967;47.984;7.842;2022-07-10T00:39:36;19.80;79.60
17697;DHT22;8967;47.984;7.842;2022-07-10T00:42:07;19.70;79.80
17697;DHT22;8967;47.984;7.842;2022-07-10T00:44:34;19.70;80.10
17697;DHT22;8967;47.984;7.842;2022-07-10T00:47:03;19.70;80.00
17697;DHT22;8967;47.984;7.842;2022-07-10T00:49:30;19.70;80.10
17697;DHT22;8967;47.984;7.842;2022-07-10T00:51:58;19.70;80.30
17697;DHT22;8967;47.984;7.842;2022-07-10T00:54:28;19.60;79.90
17697;DHT22;8967;47.984;7.842;2022-07-10T00:56:58;19.60;80.00
17697;DHT22;8967;47.984;7.842;2022-07-10T00:59:26;19.50;80.60
17697;DHT22;8967;47.984;7.842;2022-07-10T01:01:53;19.50;80.50
17697;DHT22;8967;47.984;7.842;2022-07-10T01:04:21;19.40;80.70
17697;DHT22;8967;47.984;7.842;2022-07-10T01:06:48;19.40;80.80
17697;DHT22;8967;47.984;7.842;2022-07-10T01:09:14;19.30;81.20
17697;DHT22;8967;47.984;7.842;2022-07-10T01:11:45;19.30;81.00
17697;DHT22;8967;47.984;7.842;2022-07-10T01:14:13;19.20;81.20
17697;DHT22;8967;47.984;7.842;2022-07-10T01:16:42;19.10;81.80
17697;DHT22;8967;47.984;7.842;2022-07-10T01:19:09;19.10;82.10
17697;DHT22;8967;47.984;7.842;2022-07-10T01:21:37;19.00;82.30
17697;DHT22;8967;47.984;7.842;2022-07-10T01:24:06;19.00;82.70
17697;DHT22;8967;47.984;7.842;2022-07-10T01:26:35;19.00;83.40
17697;DHT22;8967;47.984;7.842;2022-07-10T01:29:04;18.90;83.60
17697;DHT22;8967;47.984;7.842;2022-07-10T01:31:31;18.90;83.70
17697;DHT22;8967;47.984;7.842;2022-07-10T01:33:59;19.00;84.00
17697;DHT22;8967;47.984;7.842;2022-07-10T01:36:28;19.00;84.10
17697;DHT22;8967;47.984;7.842;2022-07-10T01:38:57;19.00;84.20
17697;DHT22;8967;47.984;7.842;2022-07-10T01:41:25;19.00;84.10
17697;DHT22;8967;47.984;7.842;2022-07-10T01:43:52;18.90;83.80
17697;DHT22;8967;47.984;7.842;2022-07-10T01:46:20;18.90;83.90
17697;DHT22;8967;47.984;7.842;2022-07-10T01:48:47;18.90;84.40
17697;DHT22;8967;47.984;7.842;2022-07-10T01:51:14;18.90;84.40
17697;DHT22;8967;47.984;7.842;2022-07-10T01:53:41;18.90;84.40
17697;DHT22;8967;47.984;7.842;2022-07-10T01:56:12;18.90;84.30
17697;DHT22;8967;47.984;7.842;2022-07-10T01:58:41;18.80;84.50
17697;DHT22;8967;47.984;7.842;2022-07-10T02:01:09;18.80;84.90
17697;DHT22;8967;47.984;7.842;2022-07-10T02:03:36;18.80;84.80
17697;DHT22;8967;47.984;7.842;2022-07-10T02:06:20;18.80;85.20
17697;DHT22;8967;47.984;7.842;2022-07-10T02:08:47;18.70;85.50
17697;DHT22;8967;47.984;7.842;2022-07-10T02:11:18;18.70;85.80
17697;DHT22;8967;47.984;7.842;2022-07-10T02:13:45;18.60;86.60
17697;DHT22;8967;47.984;7.842;2022-07-10T02:16:12;18.60;86.20
17697;DHT22;8967;47.984;7.842;2022-07-10T02:18:39;18.60;85.80
17697;DHT22;8967;47.984;7.842;2022-07-10T02:21:07;18.50;86.10
17697;DHT22;8967;47.984;7.842;2022-07-10T02:23:36;18.40;86.60
17697;DHT22;8967;47.984;7.842;2022-07-10T02:26:05;18.40;86.90
17697;DHT22;8967;47.984;7.842;2022-07-10T02:28:33;18.30;87.20
17697;DHT22;8967;47.984;7.842;2022-07-10T02:31:00;18.30;87.50
17697;DHT22;8967;47.984;7.842;2022-07-10T02:33:27;18.20;87.80
17697;DHT22;8967;47.984;7.842;2022-07-10T02:35:54;18.20;88.40
17697;DHT22;8967;47.984;7.842;2022-07-10T02:38:20;18.20;87.90
17697;DHT22;8967;47.984;7.842;2022-07-10T02:40:47;18.30;88.10
17697;DHT22;8967;47.984;7.842;2022-07-10T02:43:14;18.20;98.40
17697;DHT22;8967;47.984;7.842;2022-07-10T02:45:43;18.30;88.20
17697;DHT22;8967;47.984;7.842;2022-07-10T02:48:10;18.30;88.30
17697;DHT22;8967;47.984;7.842;2022-07-10T02:50:37;18.20;88.30
17697;DHT22;8967;47.984;7.842;2022-07-10T02:53:04;18.20;88.50
17697;DHT22;8967;47.984;7.842;2022-07-10T02:55:31;18.20;88.60
17697;DHT22;8967;47.984;7.842;2022-07-10T02:57:58;18.20;88.70
17697;DHT22;8967;47.984;7.842;2022-07-10T03:00:26;18.10;88.20
17697;DHT22;8967;47.984;7.842;2022-07-10T03:02:55;18.00;88.40
17697;DHT22;8967;47.984;7.842;2022-07-10T03:05:22;17.90;89.10
17697;DHT22;8967;47.984;7.842;2022-07-10T03:07:49;17.90;89.50
17697;DHT22;8967;47.984;7.842;2022-07-10T03:10:19;17.80;89.80
17697;DHT22;8967;47.984;7.842;2022-07-10T03:12:46;17.80;90.10
17697;DHT22;8967;47.984;7.842;2022-07-10T03:15:13;17.90;90.30
17697;DHT22;8967;47.984;7.842;2022-07-10T03:17:40;17.90;90.20
17697;DHT22;8967;47.984;7.842;2022-07-10T03:20:09;17.90;90.20
17697;DHT22;8967;47.984;7.842;2022-07-10T03:22:38;17.90;90.30
17697;DHT22;8967;47.984;7.842;2022-07-10T03:25:06;17.90;90.30
17697;DHT22;8967;47.984;7.842;2022-07-10T03:27:35;17.90;90.30
17697;DHT22;8967;47.984;7.842;2022-07-10T03:30:03;17.90;90.30
17697;DHT22;8967;47.984;7.842;2022-07-10T03:32:30;17.90;90.50
17697;DHT22;8967;47.984;7.842;2022-07-10T03:34:57;17.90;90.50
17697;DHT22;8967;47.984;7.842;2022-07-10T03:37:25;17.90;90.60
17697;DHT22;8967;47.984;7.842;2022-07-10T03:39:53;17.80;90.50
17697;DHT22;8967;47.984;7.842;2022-07-10T03:42:19;17.80;90.60
17697;DHT22;8967;47.984;7.842;2022-07-10T03:44:46;17.80;90.60
17697;DHT22;8967;47.984;7.842;2022-07-10T03:47:13;17.80;90.70
17697;DHT22;8967;47.984;7.842;2022-07-10T03:49:40;17.80;90.70
17697;DHT22;8967;47.984;7.842;2022-07-10T03:52:09;17.80;90.80
17697;DHT22;8967;47.984;7.842;2022-07-10T03:54:38;17.70;90.80
17697;DHT22;8967;47.984;7.842;2022-07-10T03:57:05;17.70;90.90
17697;DHT22;8967;47.984;7.842;2022-07-10T03:59:49;17.70;91.00
17697;DHT22;8967;47.984;7.842;2022-07-10T04:02:16;17.70;91.00
17697;DHT22;8967;47.984;7.842;2022-07-10T04:04:43;17.70;90.90
17697;DHT22;8967;47.984;7.842;2022-07-10T04:07:10;17.60;90.90
17697;DHT22;8967;47.984;7.842;2022-07-10T04:09:39;17.60;91.30
17697;DHT22;8967;47.984;7.842;2022-07-10T04:12:09;17.60;91.40
17697;DHT22;8967;47.984;7.842;2022-07-10T04:14:36;17.60;91.40
17697;DHT22;8967;47.984;7.842;2022-07-10T04:17:03;17.60;91.50
17697;DHT22;8967;47.984;7.842;2022-07-10T04:19:30;17.60;91.50
17697;DHT22;8967;47.984;7.842;2022-07-10T04:21:57;17.60;91.30
17697;DHT22;8967;47.984;7.842;2022-07-10T04:24:24;17.50;91.40
17697;DHT22;8967;47.984;7.842;2022-07-10T04:26:52;17.50;91.50
17697;DHT22;8967;47.984;7.842;2022-07-10T04:29:22;17.50;91.70
17697;DHT22;8967;47.984;7.842;2022-07-10T04:31:49;17.40;92.00
17697;DHT22;8967;47.984;7.842;2022-07-10T04:34:15;17.50;92.00
17697;DHT22;8967;47.984;7.842;2022-07-10T04:36:43;17.50;91.90
17697;DHT22;8967;47.984;7.842;2022-07-10T04:39:10;17.50;92.10
17697;DHT22;8967;47.984;7.842;2022-07-10T04:41:37;17.50;92.10
17697;DHT22;8967;47.984;7.842;2022-07-10T04:44:05;17.50;92.10
17697;DHT22;8967;47.984;7.842;2022-07-10T04:46:32;17.60;92.30
17697;DHT22;8967;47.984;7.842;2022-07-10T04:48:59;17.60;92.30
17697;DHT22;8967;47.984;7.842;2022-07-10T04:51:26;17.60;92.40
17697;DHT22;8967;47.984;7.842;2022-07-10T04:53:53;17.70;92.40
17697;DHT22;8967;47.984;7.842;2022-07-10T04:56:22;17.70;92.30
17697;DHT22;8967;47.984;7.842;2022-07-10T04:58:49;17.70;92.50
17697;DHT22;8967;47.984;7.842;2022-07-10T05:01:17;17.70;92.50
17697;DHT22;8967;47.984;7.842;2022-07-10T05:03:44;17.70;92.60
17697;DHT22;8967;47.984;7.842;2022-07-10T05:06:13;17.80;92.60
17697;DHT22;8967;47.984;7.842;2022-07-10T05:08:40;17.90;92.70
17697;DHT22;8967;47.984;7.842;2022-07-10T05:11:07;17.90;92.70
17697;DHT22;8967;47.984;7.842;2022-07-10T05:13:36;18.00;92.70
17697;DHT22;8967;47.984;7.842;2022-07-10T05:16:04;18.00;92.60
17697;DHT22;8967;47.984;7.842;2022-07-10T05:18:32;18.10;92.60
17697;DHT22;8967;47.984;7.842;2022-07-10T05:20:59;18.10;92.50
17697;DHT22;8967;47.984;7.842;2022-07-10T05:23:26;18.10;92.80
17697;DHT22;8967;47.984;7.842;2022-07-10T05:25:53;18.20;92.50
17697;DHT22;8967;47.984;7.842;2022-07-10T05:28:20;18.30;92.60
17697;DHT22;8967;47.984;7.842;2022-07-10T05:30:46;18.30;92.50
17697;DHT22;8967;47.984;7.842;2022-07-10T05:33:14;18.40;92.60
17697;DHT22;8967;47.984;7.842;2022-07-10T05:35:42;18.40;92.60
17697;DHT22;8967;47.984;7.842;2022-07-10T05:38:10;18.50;92.90
17697;DHT22;8967;47.984;7.842;2022-07-10T05:40:37;18.60;92.90
17697;DHT22;8967;47.984;7.842;2022-07-10T05:43:04;18.70;93.10
17697;DHT22;8967;47.984;7.842;2022-07-10T05:45:31;18.70;93.10
17697;DHT22;8967;47.984;7.842;2022-07-10T05:47:58;18.80;92.70
17697;DHT22;8967;47.984;7.842;2022-07-10T05:50:24;18.90;92.60
17697;DHT22;8967;47.984;7.842;2022-07-10T05:52:53;18.90;92.40
17697;DHT22;8967;47.984;7.842;2022-07-10T05:55:20;19.00;92.30
17697;DHT22;8967;47.984;7.842;2022-07-10T05:57:47;19.00;92.00
17697;DHT22;8967;47.984;7.842;2022-07-10T06:00:14;19.10;91.90
17697;DHT22;8967;47.984;7.842;2022-07-10T06:02:41;19.10;91.60
17697;DHT22;8967;47.984;7.842;2022-07-10T06:05:08;19.20;91.50
17697;DHT22;8967;47.984;7.842;2022-07-10T06:07:35;19.20;91.50
17697;DHT22;8967;47.984;7.842;2022-07-10T06:10:05;19.30;91.30
17697;DHT22;8967;47.984;7.842;2022-07-10T06:12:32;19.30;91.20
17697;DHT22;8967;47.984;7.842;2022-07-10T06:14:59;19.40;91.10
17697;DHT22;8967;47.984;7.842;2022-07-10T06:17:26;19.40;91.00
17697;DHT22;8967;47.984;7.842;2022-07-10T06:19:56;19.50;90.90
17697;DHT22;8967;47.984;7.842;2022-07-10T06:22:22;19.50;90.70
17697;DHT22;8967;47.984;7.842;2022-07-10T06:24:59;19.50;90.70
17697;DHT22;8967;47.984;7.842;2022-07-10T06:27:31;19.60;90.70
17697;DHT22;8967;47.984;7.842;2022-07-10T06:29:59;19.70;90.60
17697;DHT22;8967;47.984;7.842;2022-07-10T06:32:27;19.70;90.40
17697;DHT22;8967;47.984;7.842;2022-07-10T06:34:56;19.70;90.20
17697;DHT22;8967;47.984;7.842;2022-07-10T06:37:23;19.80;90.00
17697;DHT22;8967;47.984;7.842;2022-07-10T06:39:50;19.80;90.00
17697;DHT22;8967;47.984;7.842;2022-07-10T06:42:17;19.90;90.00
17697;DHT22;8967;47.984;7.842;2022-07-10T06:44:49;19.90;89.60
17697;DHT22;8967;47.984;7.842;2022-07-10T06:47:18;19.90;89.40
17697;DHT22;8967;47.984;7.842;2022-07-10T06:50:03;20.00;89.30
17697;DHT22;8967;47.984;7.842;2022-07-10T06:52:31;19.90;88.70
17697;DHT22;8967;47.984;7.842;2022-07-10T06:54:59;20.00;89.10
17697;DHT22;8967;47.984;7.842;2022-07-10T06:57:28;20.00;89.10
17697;DHT22;8967;47.984;7.842;2022-07-10T06:59:59;20.00;88.80
17697;DHT22;8967;47.984;7.842;2022-07-10T07:02:28;20.10;88.70
17697;DHT22;8967;47.984;7.842;2022-07-10T07:04:55;20.10;88.30
17697;DHT22;8967;47.984;7.842;2022-07-10T07:07:22;20.10;87.80
17697;DHT22;8967;47.984;7.842;2022-07-10T07:09:51;20.10;87.50
17697;DHT22;8967;47.984;7.842;2022-07-10T07:12:18;20.10;87.50
17697;DHT22;8967;47.984;7.842;2022-07-10T07:14:45;20.10;87.40
17697;DHT22;8967;47.984;7.842;2022-07-10T07:17:14;20.20;87.20
17697;DHT22;8967;47.984;7.842;2022-07-10T07:19:47;20.20;87.40
17697;DHT22;8967;47.984;7.842;2022-07-10T07:22:31;20.20;87.00
17697;DHT22;8967;47.984;7.842;2022-07-10T07:25:16;20.30;86.80
17697;DHT22;8967;47.984;7.842;2022-07-10T07:27:43;20.30;86.30
17697;DHT22;8967;47.984;7.842;2022-07-10T07:30:12;20.30;86.40
17697;DHT22;8967;47.984;7.842;2022-07-10T07:32:42;20.30;85.70
17697;DHT22;8967;47.984;7.842;2022-07-10T07:35:10;20.30;85.80
17697;DHT22;8967;47.984;7.842;2022-07-10T07:37:38;20.30;85.70
17697;DHT22;8967;47.984;7.842;2022-07-10T07:40:10;20.30;85.60
17697;DHT22;8967;47.984;7.842;2022-07-10T07:42:39;20.40;85.90
17697;DHT22;8967;47.984;7.842;2022-07-10T07:45:08;20.30;85.90
17697;DHT22;8967;47.984;7.842;2022-07-10T07:47:46;20.40;85.90
17697;DHT22;8967;47.984;7.842;2022-07-10T07:50:15;20.50;86.00
17697;DHT22;8967;47.984;7.842;2022-07-10T07:52:42;20.50;85.90
17697;DHT22;8967;47.984;7.842;2022-07-10T07:55:12;20.60;86.10
17697;DHT22;8967;47.984;7.842;2022-07-10T07:57:43;20.70;85.50
17697;DHT22;8967;47.984;7.842;2022-07-10T08:00:12;20.70;84.60
17697;DHT22;8967;47.984;7.842;2022-07-10T08:02:40;20.70;84.60
17697;DHT22;8967;47.984;7.842;2022-07-10T08:05:09;20.80;84.20
17697;DHT22;8967;47.984;7.842;2022-07-10T08:07:37;20.80;83.80
17697;DHT22;8967;47.984;7.842;2022-07-10T08:10:06;20.80;83.80
17697;DHT22;8967;47.984;7.842;2022-07-10T08:12:34;20.90;83.60
17697;DHT22;8967;47.984;7.842;2022-07-10T08:15:01;20.90;83.70
17697;DHT22;8967;47.984;7.842;2022-07-10T08:17:28;20.90;83.90
17697;DHT22;8967;47.984;7.842;2022-07-10T08:19:55;21.00;83.40
17697;DHT22;8967;47.984;7.842;2022-07-10T08:22:23;21.00;83.00
17697;DHT22;8967;47.984;7.842;2022-07-10T08:24:50;21.10;83.30
17697;DHT22;8967;47.984;7.842;2022-07-10T08:27:17;21.20;84.00
17697;DHT22;8967;47.984;7.842;2022-07-10T08:29:44;21.20;83.20
17697;DHT22;8967;47.984;7.842;2022-07-10T08:32:11;21.30;83.40
17697;DHT22;8967;47.984;7.842;2022-07-10T08:34:38;21.40;83.20
17697;DHT22;8967;47.984;7.842;2022-07-10T08:37:05;21.40;83.00
17697;DHT22;8967;47.984;7.842;2022-07-10T08:39:34;21.50;83.00
17697;DHT22;8967;47.984;7.842;2022-07-10T08:42:02;21.60;81.00
17697;DHT22;8967;47.984;7.842;2022-07-10T08:44:33;21.60;80.60
17697;DHT22;8967;47.984;7.842;2022-07-10T08:47:03;21.60;80.20
17697;DHT22;8967;47.984;7.842;2022-07-10T08:49:31;21.60;80.20
17697;DHT22;8967;47.984;7.842;2022-07-10T08:52:03;21.60;80.40
17697;DHT22;8967;47.984;7.842;2022-07-10T08:54:32;21.70;80.40
17697;DHT22;8967;47.984;7.842;2022-07-10T08:57:02;21.70;80.00
17697;DHT22;8967;47.984;7.842;2022-07-10T08:59:29;21.80;79.80
17697;DHT22;8967;47.984;7.842;2022-07-10T09:01:57;21.80;79.50
17697;DHT22;8967;47.984;7.842;2022-07-10T09:04:25;21.80;79.40
17697;DHT22;8967;47.984;7.842;2022-07-10T09:06:54;21.80;78.80
17697;DHT22;8967;47.984;7.842;2022-07-10T09:09:21;21.90;78.80
17697;DHT22;8967;47.984;7.842;2022-07-10T09:11:55;21.90;79.00
17697;DHT22;8967;47.984;7.842;2022-07-10T09:14:26;21.90;78.80
17697;DHT22;8967;47.984;7.842;2022-07-10T09:16:54;22.00;79.00
17697;DHT22;8967;47.984;7.842;2022-07-10T09:19:22;22.00;79.00
17697;DHT22;8967;47.984;7.842;2022-07-10T09:21:51;22.10;78.40
17697;DHT22;8967;47.984;7.842;2022-07-10T09:24:18;22.10;77.90
17697;DHT22;8967;47.984;7.842;2022-07-10T09:26:58;22.10;77.60
17697;DHT22;8967;47.984;7.842;2022-07-10T09:29:27;22.10;78.30
17697;DHT22;8967;47.984;7.842;2022-07-10T09:31:57;22.10;77.00
17697;DHT22;8967;47.984;7.842;2022-07-10T09:34:36;22.10;76.70
17697;DHT22;8967;47.984;7.842;2022-07-10T09:37:17;22.10;76.50
17697;DHT22;8967;47.984;7.842;2022-07-10T09:39:51;22.10;76.30
17697;DHT22;8967;47.984;7.842;2022-07-10T09:42:25;22.10;76.60
17697;DHT22;8967;47.984;7.842;2022-07-10T09:45:14;22.10;76.70
17697;DHT22;8967;47.984;7.842;2022-07-10T09:47:43;22.10;76.40
17697;DHT22;8967;47.984;7.842;2022-07-10T09:50:20;22.10;76.30
17697;DHT22;8967;47.984;7.842;2022-07-10T09:52:50;22.10;76.00
17697;DHT22;8967;47.984;7.842;2022-07-10T09:55:19;22.10;76.10
17697;DHT22;8967;47.984;7.842;2022-07-10T09:57:52;22.10;76.20
17697;DHT22;8967;47.984;7.842;2022-07-10T10:00:22;22.10;75.90
17697;DHT22;8967;47.984;7.842;2022-07-10T10:02:56;22.10;75.60
17697;DHT22;8967;47.984;7.842;2022-07-10T10:05:30;22.10;75.70
17697;DHT22;8967;47.984;7.842;2022-07-10T10:08:00;22.00;75.70
17697;DHT22;8967;47.984;7.842;2022-07-10T10:10:30;22.00;75.50
17697;DHT22;8967;47.984;7.842;2022-07-10T10:13:00;22.10;75.80
17697;DHT22;8967;47.984;7.842;2022-07-10T10:15:31;22.10;74.80
17697;DHT22;8967;47.984;7.842;2022-07-10T10:18:02;22.10;75.20
17697;DHT22;8967;47.984;7.842;2022-07-10T10:20:32;22.10;75.40
17697;DHT22;8967;47.984;7.842;2022-07-10T10:23:09;22.10;75.60
17697;DHT22;8967;47.984;7.842;2022-07-10T10:25:37;22.20;75.40
17697;DHT22;8967;47.984;7.842;2022-07-10T10:28:09;22.20;74.70
17697;DHT22;8967;47.984;7.842;2022-07-10T10:30:39;22.10;74.60
17697;DHT22;8967;47.984;7.842;2022-07-10T10:33:42;22.10;74.90
17697;DHT22;8967;47.984;7.842;2022-07-10T10:36:11;22.10;74.80
17697;DHT22;8967;47.984;7.842;2022-07-10T10:39:02;22.00;74.80
17697;DHT22;8967;47.984;7.842;2022-07-10T10:41:30;22.10;74.50
17697;DHT22;8967;47.984;7.842;2022-07-10T10:44:22;22.10;74.50
17697;DHT22;8967;47.984;7.842;2022-07-10T10:46:59;22.10;74.60
17697;DHT22;8967;47.984;7.842;2022-07-10T10:49:54;22.10;73.50
17697;DHT22;8967;47.984;7.842;2022-07-10T10:52:24;22.10;73.60
17697;DHT22;8967;47.984;7.842;2022-07-10T10:55:07;22.10;73.50
17697;DHT22;8967;47.984;7.842;2022-07-10T10:57:43;22.10;73.50
17697;DHT22;8967;47.984;7.842;2022-07-10T11:00:15;22.10;73.30
17697;DHT22;8967;47.984;7.842;2022-07-10T11:05:56;22.10;72.90
17697;DHT22;8967;47.984;7.842;2022-07-10T11:08:37;22.10;72.30
17697;DHT22;8967;47.984;7.842;2022-07-10T11:11:38;22.10;71.90
17697;DHT22;8967;47.984;7.842;2022-07-10T11:14:09;22.10;72.00
17697;DHT22;8967;47.984;7.842;2022-07-10T11:16:47;22.10;72.20
17697;DHT22;8967;47.984;7.842;2022-07-10T11:19:26;22.10;71.70
17697;DHT22;8967;47.984;7.842;2022-07-10T11:25:15;22.20;72.50
17697;DHT22;8967;47.984;7.842;2022-07-10T11:28:04;22.20;72.00
17697;DHT22;8967;47.984;7.842;2022-07-10T11:30:44;22.20;72.10
17697;DHT22;8967;47.984;7.842;2022-07-10T11:33:11;22.20;71.80
17697;DHT22;8967;47.984;7.842;2022-07-10T11:35:39;22.20;71.30
17697;DHT22;8967;47.984;7.842;2022-07-10T11:38:06;22.20;71.00
17697;DHT22;8967;47.984;7.842;2022-07-10T11:40:37;22.30;70.80
17697;DHT22;8967;47.984;7.842;2022-07-10T11:43:04;22.30;70.60
17697;DHT22;8967;47.984;7.842;2022-07-10T11:45:35;22.30;69.40
17697;DHT22;8967;47.984;7.842;2022-07-10T11:48:05;22.30;69.10
17697;DHT22;8967;47.984;7.842;2022-07-10T11:50:37;22.30;69.50
17697;DHT22;8967;47.984;7.842;2022-07-10T11:53:05;22.30;69.70
17697;DHT22;8967;47.984;7.842;2022-07-10T11:55:32;22.30;69.80
17697;DHT22;8967;47.984;7.842;2022-07-10T11:58:16;22.40;69.70
17697;DHT22;8967;47.984;7.842;2022-07-10T12:00:43;22.40;69.20
17697;DHT22;8967;47.984;7.842;2022-07-10T12:03:18;22.40;68.70
17697;DHT22;8967;47.984;7.842;2022-07-10T12:05:48;22.40;69.00
17697;DHT22;8967;47.984;7.842;2022-07-10T12:08:16;22.40;68.50
17697;DHT22;8967;47.984;7.842;2022-07-10T12:10:46;22.40;68.20
17697;DHT22;8967;47.984;7.842;2022-07-10T12:13:15;22.40;68.70
17697;DHT22;8967;47.984;7.842;2022-07-10T12:15:43;22.40;67.00
17697;DHT22;8967;47.984;7.842;2022-07-10T12:18:16;22.40;65.90
17697;DHT22;8967;47.984;7.842;2022-07-10T12:20:43;22.40;64.80
17697;DHT22;8967;47.984;7.842;2022-07-10T12:23:14;22.40;64.70
17697;DHT22;8967;47.984;7.842;2022-07-10T12:25:42;22.40;64.00
17697;DHT22;8967;47.984;7.842;2022-07-10T12:28:09;22.40;63.20
17697;DHT22;8967;47.984;7.842;2022-07-10T12:30:42;22.40;62.10
17697;DHT22;8967;47.984;7.842;2022-07-10T12:33:11;22.40;62.10
17697;DHT22;8967;47.984;7.842;2022-07-10T12:35:46;22.40;61.40
17697;DHT22;8967;47.984;7.842;2022-07-10T12:38:16;22.40;61.20
17697;DHT22;8967;47.984;7.842;2022-07-10T12:40:43;22.40;60.00
17697;DHT22;8967;47.984;7.842;2022-07-10T12:43:10;22.40;59.60
17697;DHT22;8967;47.984;7.842;2022-07-10T12:45:38;22.40;59.80
17697;DHT22;8967;47.984;7.842;2022-07-10T12:48:06;22.40;59.60
17697;DHT22;8967;47.984;7.842;2022-07-10T12:50:35;22.40;59.60
17697;DHT22;8967;47.984;7.842;2022-07-10T12:53:07;22.40;59.40
17697;DHT22;8967;47.984;7.842;2022-07-10T12:55:38;22.40;58.80
17697;DHT22;8967;47.984;7.842;2022-07-10T12:58:09;22.40;59.10
17697;DHT22;8967;47.984;7.842;2022-07-10T13:00:43;22.50;58.20
17697;DHT22;8967;47.984;7.842;2022-07-10T13:03:20;22.50;58.10
17697;DHT22;8967;47.984;7.842;2022-07-10T13:05:48;22.50;58.10
17697;DHT22;8967;47.984;7.842;2022-07-10T13:08:16;22.60;58.30
17697;DHT22;8967;47.984;7.842;2022-07-10T13:10:47;22.50;58.10
17697;DHT22;8967;47.984;7.842;2022-07-10T13:13:17;22.50;58.50
17697;DHT22;8967;47.984;7.842;2022-07-10T13:15:44;22.60;59.00
17697;DHT22;8967;47.984;7.842;2022-07-10T13:18:17;22.60;59.30
17697;DHT22;8967;47.984;7.842;2022-07-10T13:20:48;22.60;59.40
17697;DHT22;8967;47.984;7.842;2022-07-10T13:23:15;22.60;59.70
17697;DHT22;8967;47.984;7.842;2022-07-10T13:25:44;22.60;59.20
17697;DHT22;8967;47.984;7.842;2022-07-10T13:28:11;22.60;58.80
17697;DHT22;8967;47.984;7.842;2022-07-10T13:30:38;22.70;58.70
17697;DHT22;8967;47.984;7.842;2022-07-10T13:33:05;22.70;58.40
17697;DHT22;8967;47.984;7.842;2022-07-10T13:35:35;22.70;58.40
17697;DHT22;8967;47.984;7.842;2022-07-10T13:38:03;22.60;58.30
17697;DHT22;8967;47.984;7.842;2022-07-10T13:40:31;22.70;58.30
17697;DHT22;8967;47.984;7.842;2022-07-10T13:42:58;22.70;57.80
17697;DHT22;8967;47.984;7.842;2022-07-10T13:45:26;22.70;57.50
17697;DHT22;8967;47.984;7.842;2022-07-10T13:47:58;22.70;57.60
17697;DHT22;8967;47.984;7.842;2022-07-10T13:50:25;22.70;57.60
17697;DHT22;8967;47.984;7.842;2022-07-10T13:52:53;22.70;57.40
17697;DHT22;8967;47.984;7.842;2022-07-10T13:55:20;22.70;56.80
17697;DHT22;8967;47.984;7.842;2022-07-10T13:57:47;22.70;55.80
17697;DHT22;8967;47.984;7.842;2022-07-10T14:00:16;22.70;56.00
17697;DHT22;8967;47.984;7.842;2022-07-10T14:02:43;22.70;56.00
17697;DHT22;8967;47.984;7.842;2022-07-10T14:05:10;22.70;55.70
17697;DHT22;8967;47.984;7.842;2022-07-10T14:07:39;22.80;55.60
17697;DHT22;8967;47.984;7.842;2022-07-10T14:10:08;22.80;55.90
17697;DHT22;8967;47.984;7.842;2022-07-10T14:12:36;22.80;55.20
17697;DHT22;8967;47.984;7.842;2022-07-10T14:15:03;22.80;55.00
17697;DHT22;8967;47.984;7.842;2022-07-10T14:17:32;22.80;53.70
17697;DHT22;8967;47.984;7.842;2022-07-10T14:19:59;22.70;52.90
17697;DHT22;8967;47.984;7.842;2022-07-10T14:22:26;22.70;53.20
17697;DHT22;8967;47.984;7.842;2022-07-10T14:24:56;22.80;53.40
17697;DHT22;8967;47.984;7.842;2022-07-10T14:27:25;22.90;54.10
17697;DHT22;8967;47.984;7.842;2022-07-10T14:29:55;22.90;54.30
17697;DHT22;8967;47.984;7.842;2022-07-10T14:32:22;22.90;53.60
17697;DHT22;8967;47.984;7.842;2022-07-10T14:34:52;22.90;53.80
17697;DHT22;8967;47.984;7.842;2022-07-10T14:37:19;22.90;54.10
17697;DHT22;8967;47.984;7.842;2022-07-10T14:39:47;22.90;54.00
17697;DHT22;8967;47.984;7.842;2022-07-10T14:42:14;22.90;53.80
17697;DHT22;8967;47.984;7.842;2022-07-10T14:44:43;23.00;53.30
17697;DHT22;8967;47.984;7.842;2022-07-10T14:47:10;23.00;53.60
17697;DHT22;8967;47.984;7.842;2022-07-10T14:49:39;23.00;53.70
17697;DHT22;8967;47.984;7.842;2022-07-10T14:52:06;23.00;53.70
17697;DHT22;8967;47.984;7.842;2022-07-10T14:54:33;23.00;54.00
17697;DHT22;8967;47.984;7.842;2022-07-10T14:57:00;23.00;54.30
17697;DHT22;8967;47.984;7.842;2022-07-10T14:59:27;23.00;54.50
17697;DHT22;8967;47.984;7.842;2022-07-10T15:01:55;23.10;54.70
17697;DHT22;8967;47.984;7.842;2022-07-10T15:04:25;23.00;54.60
17697;DHT22;8967;47.984;7.842;2022-07-10T15:06:52;23.00;54.80
17697;DHT22;8967;47.984;7.842;2022-07-10T15:09:21;23.00;54.00
17697;DHT22;8967;47.984;7.842;2022-07-10T15:11:48;23.00;54.00
17697;DHT22;8967;47.984;7.842;2022-07-10T15:14:19;23.00;54.10
17697;DHT22;8967;47.984;7.842;2022-07-10T15:16:46;23.00;54.20
17697;DHT22;8967;47.984;7.842;2022-07-10T15:19:15;23.00;54.00
17697;DHT22;8967;47.984;7.842;2022-07-10T15:21:42;23.00;53.80
17697;DHT22;8967;47.984;7.842;2022-07-10T15:24:08;23.00;53.80
17697;DHT22;8967;47.984;7.842;2022-07-10T15:26:35;23.00;53.60
17697;DHT22;8967;47.984;7.842;2022-07-10T15:29:02;23.00;53.30
17697;DHT22;8967;47.984;7.842;2022-07-10T15:31:31;23.00;53.60
17697;DHT22;8967;47.984;7.842;2022-07-10T15:33:59;23.00;52.60
17697;DHT22;8967;47.984;7.842;2022-07-10T15:36:28;23.00;52.60
17697;DHT22;8967;47.984;7.842;2022-07-10T15:38:55;23.00;52.50
17697;DHT22;8967;47.984;7.842;2022-07-10T15:41:24;23.00;52.30
17697;DHT22;8967;47.984;7.842;2022-07-10T15:43:51;23.00;52.10
17697;DHT22;8967;47.984;7.842;2022-07-10T15:46:18;23.00;51.60
17697;DHT22;8967;47.984;7.842;2022-07-10T15:48:45;23.00;51.40
17697;DHT22;8967;47.984;7.842;2022-07-10T15:51:12;23.00;51.30
17697;DHT22;8967;47.984;7.842;2022-07-10T15:53:42;23.00;51.40
17697;DHT22;8967;47.984;7.842;2022-07-10T15:56:09;23.00;51.40
17697;DHT22;8967;47.984;7.842;2022-07-10T15:58:36;22.90;51.00
17697;DHT22;8967;47.984;7.842;2022-07-10T16:01:03;23.00;51.10
17697;DHT22;8967;47.984;7.842;2022-07-10T16:03:33;23.00;51.30